sensor_id;sensor_type;location;lat;lon;timestamp;P1;durP1;ratioP1;P2;durP2;ratioP2
16826;SDS011;8530;49.540;8.576;2023-12-29T00:02:13;6.87;;;6.17;;
16826;SDS011;8530;49.540;8.576;2023-12-29T00:04:41;7.57;;;6.23;;
16826;SDS011;8530;49.540;8.576;2023-12-29T00:07:08;6.70;;;6.03;;
16826;SDS011;8530;49.540;8.576;2023-12-29T00:09:35;7.83;;;7.00;;
16826;SDS011;8530;49.540;8.576;2023-12-29T00:12:06;6.13;;;5.50;;
16826;SDS011;8530;49.540;8.576;2023-12-29T00:14:33;6.87;;;6.27;;
16826;SDS011;8530;49.540;8.576;2023-12-29T00:17:00;8.00;;;6.83;;
16826;SDS011;8530;49.540;8.576;2023-12-29T00:19:26;7.27;;;6.40;;
16826;SDS011;8530;49.540;8.576;2023-12-29T00:21:54;8.37;;;7.57;;
16826;SDS011;8530;49.540;8.576;2023-12-29T00:24:21;7.60;;;6.90;;
16826;SDS011;8530;49.540;8.576;2023-12-29T00:26:47;10.47;;;7.70;;
16826;SDS011;8530;49.540;8.576;2023-12-29T00:29:14;11.90;;;7.27;;
16826;SDS011;8530;49.540;8.576;2023-12-29T00:31:41;8.40;;;7.33;;
16826;SDS011;8530;49.540;8.576;2023-12-29T00:34:07;12.30;;;7.93;;
16826;SDS011;8530;49.540;8.576;2023-12-29T00:36:34;10.20;;;8.33;;
16826;SDS011;8530;49.540;8.576;2023-12-29T00:39:02;9.37;;;7.50;;
16826;SDS011;8530;49.540;8.576;2023-12-29T00:41:29;9.27;;;8.00;;
16826;SDS011;8530;49.540;8.576;2023-12-29T00:43:56;10.00;;;8.23;;
16826;SDS011;8530;49.540;8.576;2023-12-29T00:46:22;9.90;;;7.70;;
16826;SDS011;8530;49.540;8.576;2023-12-29T00:48:49;9.53;;;7.47;;
16826;SDS011;8530;49.540;8.576;2023-12-29T00:51:15;7.33;;;6.63;;
16826;SDS011;8530;49.540;8.576;2023-12-29T00:53:42;10.17;;;9.17;;
16826;SDS011;8530;49.540;8.576;2023-12-29T00:56:11;11.53;;;8.50;;
16826;SDS011;8530;49.540;8.576;2023-12-29T00:58:38;9.43;;;7.73;;
16826;SDS011;8530;49.540;8.576;2023-12-29T01:01:06;8.10;;;7.10;;
16826;SDS011;8530;49.540;8.576;2023-12-29T01:03:36;12.17;;;6.87;;
16826;SDS011;8530;49.540;8.576;2023-12-29T01:06:03;7.67;;;6.97;;
16826;SDS011;8530;49.540;8.576;2023-12-29T01:08:30;7.63;;;6.90;;
16826;SDS011;8530;49.540;8.576;2023-12-29T01:10:58;7.17;;;5.80;;
16826;SDS011;8530;49.540;8.576;2023-12-29T01:13:26;6.83;;;6.07;;
16826;SDS011;8530;49.540;8.576;2023-12-29T01:15:53;7.80;;;7.03;;
16826;SDS011;8530;49.540;8.576;2023-12-29T01:18:19;8.77;;;6.67;;
16826;SDS011;8530;49.540;8.576;2023-12-29T01:20:46;6.47;;;5.70;;
16826;SDS011;8530;49.540;8.576;2023-12-29T01:23:13;8.50;;;6.47;;
16826;SDS011;8530;49.540;8.576;2023-12-29T01:25:39;6.37;;;5.77;;
16826;SDS011;8530;49.540;8.576;2023-12-29T01:28:06;7.73;;;6.47;;
16826;SDS011;8530;49.540;8.576;2023-12-29T01:30:34;8.50;;;7.60;;
16826;SDS011;8530;49.540;8.576;2023-12-29T01:33:01;9.00;;;8.10;;
16826;SDS011;8530;49.540;8.576;2023-12-29T01:35:28;7.70;;;7.00;;
16826;SDS011;8530;49.540;8.576;2023-12-29T01:37:54;8.73;;;7.27;;
16826;SDS011;8530;49.540;8.576;2023-12-29T01:40:21;13.10;;;8.00;;
16826;SDS011;8530;49.540;8.576;2023-12-29T01:42:48;11.07;;;8.23;;
16826;SDS011;8530;49.540;8.576;2023-12-29T01:45:19;12.50;;;9.03;;
16826;SDS011;8530;49.540;8.576;2023-12-29T01:47:49;9.90;;;7.70;;
16826;SDS011;8530;49.540;8.576;2023-12-29T01:50:17;13.00;;;7.53;;
16826;SDS011;8530;49.540;8.576;2023-12-29T01:52:45;9.33;;;8.40;;
16826;SDS011;8530;49.540;8.576;2023-12-29T01:55:15;17.13;;;9.13;;
16826;SDS011;8530;49.540;8.576;2023-12-29T01:57:44;9.70;;;8.70;;
16826;SDS011;8530;49.540;8.576;2023-12-29T02:00:11;9.93;;;8.90;;
16826;SDS011;8530;49.540;8.576;2023-12-29T02:02:40;8.93;;;7.83;;
16826;SDS011;8530;49.540;8.576;2023-12-29T02:05:08;9.37;;;8.37;;
16826;SDS011;8530;49.540;8.576;2023-12-29T02:07:37;12.37;;;10.13;;
16826;SDS011;8530;49.540;8.576;2023-12-29T02:10:05;13.00;;;8.97;;
16826;SDS011;8530;49.540;8.576;2023-12-29T02:12:32;13.47;;;9.43;;
16826;SDS011;8530;49.540;8.576;2023-12-29T02:15:01;8.50;;;7.67;;
16826;SDS011;8530;49.540;8.576;2023-12-29T02:17:30;10.60;;;8.50;;
16826;SDS011;8530;49.540;8.576;2023-12-29T02:20:02;10.00;;;9.10;;
16826;SDS011;8530;49.540;8.576;2023-12-29T02:22:32;11.83;;;8.37;;
16826;SDS011;8530;49.540;8.576;2023-12-29T02:24:59;10.17;;;9.10;;
16826;SDS011;8530;49.540;8.576;2023-12-29T02:27:31;8.47;;;7.77;;
16826;SDS011;8530;49.540;8.576;2023-12-29T02:30:08;9.37;;;8.27;;
16826;SDS011;8530;49.540;8.576;2023-12-29T02:32:38;8.00;;;7.20;;
16826;SDS011;8530;49.540;8.576;2023-12-29T02:35:07;9.60;;;7.73;;
16826;SDS011;8530;49.540;8.576;2023-12-29T02:37:36;8.90;;;6.97;;
16826;SDS011;8530;49.540;8.576;2023-12-29T02:40:07;9.70;;;7.47;;
16826;SDS011;8530;49.540;8.576;2023-12-29T02:42:34;6.70;;;6.00;;
16826;SDS011;8530;49.540;8.576;2023-12-29T02:45:01;9.10;;;6.40;;
16826;SDS011;8530;49.540;8.576;2023-12-29T02:47:28;4.97;;;4.47;;
16826;SDS011;8530;49.540;8.576;2023-12-29T02:49:55;5.47;;;4.97;;
16826;SDS011;8530;49.540;8.576;2023-12-29T02:52:21;6.07;;;5.57;;
16826;SDS011;8530;49.540;8.576;2023-12-29T02:54:48;5.87;;;5.33;;
16826;SDS011;8530;49.540;8.576;2023-12-29T02:57:16;11.03;;;5.50;;
16826;SDS011;8530;49.540;8.576;2023-12-29T02:59:43;7.73;;;5.43;;
16826;SDS011;8530;49.540;8.576;2023-12-29T03:02:10;5.60;;;5.10;;
16826;SDS011;8530;49.540;8.576;2023-12-29T03:04:36;5.03;;;4.27;;
16826;SDS011;8530;49.540;8.576;2023-12-29T03:07:03;4.07;;;3.67;;
16826;SDS011;8530;49.540;8.576;2023-12-29T03:09:30;7.10;;;5.20;;
16826;SDS011;8530;49.540;8.576;2023-12-29T03:11:57;4.80;;;4.30;;
16826;SDS011;8530;49.540;8.576;2023-12-29T03:14:25;4.43;;;4.03;;
16826;SDS011;8530;49.540;8.576;2023-12-29T03:16:51;5.57;;;4.43;;
16826;SDS011;8530;49.540;8.576;2023-12-29T03:19:18;4.97;;;3.77;;
16826;SDS011;8530;49.540;8.576;2023-12-29T03:21:45;4.53;;;3.70;;
16826;SDS011;8530;49.540;8.576;2023-12-29T03:24:11;5.17;;;3.87;;
16826;SDS011;8530;49.540;8.576;2023-12-29T03:26:38;4.77;;;4.37;;
16826;SDS011;8530;49.540;8.576;2023-12-29T03:29:05;4.93;;;3.30;;
16826;SDS011;8530;49.540;8.576;2023-12-29T03:31:33;4.77;;;3.57;;
16826;SDS011;8530;49.540;8.576;2023-12-29T03:33:59;3.50;;;3.20;;
16826;SDS011;8530;49.540;8.576;2023-12-29T03:36:26;3.87;;;3.57;;
16826;SDS011;8530;49.540;8.576;2023-12-29T03:38:53;4.23;;;3.40;;
16826;SDS011;8530;49.540;8.576;2023-12-29T03:41:20;3.80;;;3.27;;
16826;SDS011;8530;49.540;8.576;2023-12-29T03:43:46;4.10;;;3.63;;
16826;SDS011;8530;49.540;8.576;2023-12-29T03:46:16;4.10;;;3.70;;
16826;SDS011;8530;49.540;8.576;2023-12-29T03:48:44;4.60;;;4.03;;
16826;SDS011;8530;49.540;8.576;2023-12-29T03:51:12;3.40;;;3.10;;
16826;SDS011;8530;49.540;8.576;2023-12-29T03:53:38;5.20;;;4.33;;
16826;SDS011;8530;49.540;8.576;2023-12-29T03:56:06;3.50;;;3.20;;
16826;SDS011;8530;49.540;8.576;2023-12-29T03:58:33;7.00;;;4.07;;
16826;SDS011;8530;49.540;8.576;2023-12-29T04:01:00;5.70;;;4.00;;
16826;SDS011;8530;49.540;8.576;2023-12-29T04:03:27;3.97;;;3.53;;
16826;SDS011;8530;49.540;8.576;2023-12-29T04:05:55;3.73;;;3.27;;
16826;SDS011;8530;49.540;8.576;2023-12-29T04:08:22;6.20;;;3.33;;
16826;SDS011;8530;49.540;8.576;2023-12-29T04:10:48;3.50;;;3.20;;
16826;SDS011;8530;49.540;8.576;2023-12-29T04:13:15;4.40;;;3.63;;
16826;SDS011;8530;49.540;8.576;2023-12-29T04:15:42;3.90;;;3.40;;
16826;SDS011;8530;49.540;8.576;2023-12-29T04:18:08;3.17;;;2.87;;
16826;SDS011;8530;49.540;8.576;2023-12-29T04:20:35;4.70;;;3.90;;
16826;SDS011;8530;49.540;8.576;2023-12-29T04:23:03;4.17;;;3.60;;
16826;SDS011;8530;49.540;8.576;2023-12-29T04:25:32;5.63;;;4.20;;
16826;SDS011;8530;49.540;8.576;2023-12-29T04:27:59;4.73;;;3.53;;
16826;SDS011;8530;49.540;8.576;2023-12-29T04:30:25;3.97;;;3.57;;
16826;SDS011;8530;49.540;8.576;2023-12-29T04:32:52;4.23;;;3.40;;
16826;SDS011;8530;49.540;8.576;2023-12-29T04:35:19;3.93;;;3.60;;
16826;SDS011;8530;49.540;8.576;2023-12-29T04:37:46;4.40;;;3.50;;
16826;SDS011;8530;49.540;8.576;2023-12-29T04:40:14;4.03;;;3.53;;
16826;SDS011;8530;49.540;8.576;2023-12-29T04:42:40;3.50;;;3.20;;
16826;SDS011;8530;49.540;8.576;2023-12-29T04:45:07;4.70;;;4.07;;
16826;SDS011;8530;49.540;8.576;2023-12-29T04:47:35;10.00;;;6.67;;
16826;SDS011;8530;49.540;8.576;2023-12-29T04:50:02;10.00;;;8.10;;
16826;SDS011;8530;49.540;8.576;2023-12-29T04:52:30;10.63;;;8.10;;
16826;SDS011;8530;49.540;8.576;2023-12-29T04:54:57;14.63;;;8.77;;
16826;SDS011;8530;49.540;8.576;2023-12-29T04:57:25;14.50;;;9.30;;
16826;SDS011;8530;49.540;8.576;2023-12-29T04:59:52;15.20;;;8.73;;
16826;SDS011;8530;49.540;8.576;2023-12-29T05:02:19;14.73;;;8.60;;
16826;SDS011;8530;49.540;8.576;2023-12-29T05:04:46;12.20;;;8.90;;
16826;SDS011;8530;49.540;8.576;2023-12-29T05:07:13;10.77;;;8.83;;
16826;SDS011;8530;49.540;8.576;2023-12-29T05:09:39;16.77;;;11.33;;
16826;SDS011;8530;49.540;8.576;2023-12-29T05:12:06;13.93;;;9.87;;
16826;SDS011;8530;49.540;8.576;2023-12-29T05:14:34;10.47;;;9.40;;
16826;SDS011;8530;49.540;8.576;2023-12-29T05:17:01;12.07;;;10.17;;
16826;SDS011;8530;49.540;8.576;2023-12-29T05:19:28;10.67;;;9.57;;
16826;SDS011;8530;49.540;8.576;2023-12-29T05:21:54;12.33;;;9.87;;
16826;SDS011;8530;49.540;8.576;2023-12-29T05:24:21;15.10;;;10.97;;
16826;SDS011;8530;49.540;8.576;2023-12-29T05:26:48;14.17;;;10.53;;
16826;SDS011;8530;49.540;8.576;2023-12-29T05:29:14;17.30;;;10.20;;
16826;SDS011;8530;49.540;8.576;2023-12-29T05:31:42;14.37;;;11.13;;
16826;SDS011;8530;49.540;8.576;2023-12-29T05:34:09;12.17;;;10.90;;
16826;SDS011;8530;49.540;8.576;2023-12-29T05:36:36;15.60;;;11.43;;
16826;SDS011;8530;49.540;8.576;2023-12-29T05:39:02;14.20;;;12.10;;
16826;SDS011;8530;49.540;8.576;2023-12-29T05:41:29;10.97;;;8.77;;
16826;SDS011;8530;49.540;8.576;2023-12-29T05:43:56;11.90;;;9.93;;
16826;SDS011;8530;49.540;8.576;2023-12-29T05:46:23;9.90;;;8.70;;
16826;SDS011;8530;49.540;8.576;2023-12-29T05:48:51;11.10;;;9.90;;
16826;SDS011;8530;49.540;8.576;2023-12-29T05:51:18;13.17;;;10.00;;
16826;SDS011;8530;49.540;8.576;2023-12-29T05:53:45;10.10;;;9.13;;
16826;SDS011;8530;49.540;8.576;2023-12-29T05:56:12;10.77;;;9.67;;
16826;SDS011;8530;49.540;8.576;2023-12-29T05:58:40;11.30;;;9.67;;
16826;SDS011;8530;49.540;8.576;2023-12-29T06:01:06;11.90;;;9.53;;
16826;SDS011;8530;49.540;8.576;2023-12-29T06:03:33;9.33;;;8.30;;
16826;SDS011;8530;49.540;8.576;2023-12-29T06:06:01;10.77;;;9.50;;
16826;SDS011;8530;49.540;8.576;2023-12-29T06:08:28;9.83;;;8.90;;
16826;SDS011;8530;49.540;8.576;2023-12-29T06:10:55;10.23;;;9.03;;
16826;SDS011;8530;49.540;8.576;2023-12-29T06:13:22;9.10;;;8.20;;
16826;SDS011;8530;49.540;8.576;2023-12-29T06:15:48;9.43;;;8.53;;
16826;SDS011;8530;49.540;8.576;2023-12-29T06:18:15;10.67;;;9.00;;
16826;SDS011;8530;49.540;8.576;2023-12-29T06:20:42;10.53;;;9.27;;
16826;SDS011;8530;49.540;8.576;2023-12-29T06:23:10;9.60;;;8.60;;
16826;SDS011;8530;49.540;8.576;2023-12-29T06:25:36;11.40;;;10.07;;
16826;SDS011;8530;49.540;8.576;2023-12-29T06:28:04;10.00;;;8.97;;
16826;SDS011;8530;49.540;8.576;2023-12-29T06:30:31;11.03;;;8.50;;
16826;SDS011;8530;49.540;8.576;2023-12-29T06:32:58;16.20;;;8.90;;
16826;SDS011;8530;49.540;8.576;2023-12-29T06:35:24;11.70;;;9.17;;
16826;SDS011;8530;49.540;8.576;2023-12-29T06:37:51;12.17;;;8.77;;
16826;SDS011;8530;49.540;8.576;2023-12-29T06:40:19;12.80;;;7.20;;
16826;SDS011;8530;49.540;8.576;2023-12-29T06:42:46;18.33;;;9.00;;
16826;SDS011;8530;49.540;8.576;2023-12-29T06:45:13;9.53;;;7.40;;
16826;SDS011;8530;49.540;8.576;2023-12-29T06:47:39;9.63;;;7.40;;
16826;SDS011;8530;49.540;8.576;2023-12-29T06:50:06;8.17;;;7.33;;
16826;SDS011;8530;49.540;8.576;2023-12-29T06:52:37;8.23;;;7.37;;
16826;SDS011;8530;49.540;8.576;2023-12-29T06:55:04;9.87;;;7.70;;
16826;SDS011;8530;49.540;8.576;2023-12-29T06:57:33;12.73;;;7.63;;
16826;SDS011;8530;49.540;8.576;2023-12-29T07:00:00;11.23;;;8.83;;
16826;SDS011;8530;49.540;8.576;2023-12-29T07:02:26;7.70;;;6.90;;
16826;SDS011;8530;49.540;8.576;2023-12-29T07:04:53;8.20;;;7.00;;
16826;SDS011;8530;49.540;8.576;2023-12-29T07:07:20;6.73;;;6.13;;
16826;SDS011;8530;49.540;8.576;2023-12-29T07:09:46;6.97;;;6.33;;
16826;SDS011;8530;49.540;8.576;2023-12-29T07:12:13;6.70;;;6.10;;
16826;SDS011;8530;49.540;8.576;2023-12-29T07:14:41;10.10;;;6.83;;
16826;SDS011;8530;49.540;8.576;2023-12-29T07:17:08;9.90;;;6.20;;
16826;SDS011;8530;49.540;8.576;2023-12-29T07:19:35;5.80;;;5.30;;
16826;SDS011;8530;49.540;8.576;2023-12-29T07:22:03;6.43;;;5.80;;
16826;SDS011;8530;49.540;8.576;2023-12-29T07:24:31;6.93;;;6.10;;
16826;SDS011;8530;49.540;8.576;2023-12-29T07:26:58;11.07;;;6.50;;
16826;SDS011;8530;49.540;8.576;2023-12-29T07:29:25;6.23;;;5.60;;
16826;SDS011;8530;49.540;8.576;2023-12-29T07:31:53;8.83;;;6.27;;
16826;SDS011;8530;49.540;8.576;2023-12-29T07:34:19;7.47;;;6.00;;
16826;SDS011;8530;49.540;8.576;2023-12-29T07:36:46;5.80;;;5.20;;
16826;SDS011;8530;49.540;8.576;2023-12-29T07:39:13;7.27;;;5.87;;
16826;SDS011;8530;49.540;8.576;2023-12-29T07:41:40;6.07;;;5.40;;
16826;SDS011;8530;49.540;8.576;2023-12-29T07:44:07;5.87;;;5.27;;
16826;SDS011;8530;49.540;8.576;2023-12-29T07:46:33;6.40;;;5.80;;
16826;SDS011;8530;49.540;8.576;2023-12-29T07:49:01;6.80;;;5.70;;
16826;SDS011;8530;49.540;8.576;2023-12-29T07:51:29;6.87;;;6.10;;
16826;SDS011;8530;49.540;8.576;2023-12-29T07:53:56;7.70;;;5.03;;
16826;SDS011;8530;49.540;8.576;2023-12-29T07:56:23;6.93;;;6.17;;
16826;SDS011;8530;49.540;8.576;2023-12-29T07:58:49;5.80;;;5.20;;
16826;SDS011;8530;49.540;8.576;2023-12-29T08:01:16;6.47;;;5.00;;
16826;SDS011;8530;49.540;8.576;2023-12-29T08:03:43;5.93;;;5.40;;
16826;SDS011;8530;49.540;8.576;2023-12-29T08:06:11;5.13;;;4.63;;
16826;SDS011;8530;49.540;8.576;2023-12-29T08:08:38;4.73;;;4.27;;
16826;SDS011;8530;49.540;8.576;2023-12-29T08:11:05;5.10;;;4.60;;
16826;SDS011;8530;49.540;8.576;2023-12-29T08:13:31;6.47;;;4.70;;
16826;SDS011;8530;49.540;8.576;2023-12-29T08:15:58;5.73;;;5.13;;
16826;SDS011;8530;49.540;8.576;2023-12-29T08:18:25;5.30;;;4.60;;
16826;SDS011;8530;49.540;8.576;2023-12-29T08:20:51;7.90;;;4.83;;
16826;SDS011;8530;49.540;8.576;2023-12-29T08:23:19;5.03;;;4.53;;
16826;SDS011;8530;49.540;8.576;2023-12-29T08:25:46;4.90;;;4.50;;
16826;SDS011;8530;49.540;8.576;2023-12-29T08:28:13;8.30;;;5.37;;
16826;SDS011;8530;49.540;8.576;2023-12-29T08:30:40;5.70;;;5.20;;
16826;SDS011;8530;49.540;8.576;2023-12-29T08:33:07;6.13;;;4.97;;
16826;SDS011;8530;49.540;8.576;2023-12-29T08:35:34;6.30;;;5.70;;
16826;SDS011;8530;49.540;8.576;2023-12-29T08:38:01;6.23;;;5.40;;
16826;SDS011;8530;49.540;8.576;2023-12-29T08:40:29;5.67;;;4.70;;
16826;SDS011;8530;49.540;8.576;2023-12-29T08:42:56;6.23;;;4.30;;
16826;SDS011;8530;49.540;8.576;2023-12-29T08:45:23;7.60;;;5.87;;
16826;SDS011;8530;49.540;8.576;2023-12-29T08:47:50;6.97;;;5.70;;
16826;SDS011;8530;49.540;8.576;2023-12-29T08:50:17;5.43;;;4.93;;
16826;SDS011;8530;49.540;8.576;2023-12-29T08:52:43;6.00;;;5.17;;
16826;SDS011;8530;49.540;8.576;2023-12-29T08:55:10;5.77;;;4.83;;
16826;SDS011;8530;49.540;8.576;2023-12-29T08:57:38;5.83;;;5.30;;
16826;SDS011;8530;49.540;8.576;2023-12-29T09:00:05;6.77;;;5.50;;
16826;SDS011;8530;49.540;8.576;2023-12-29T09:02:34;5.87;;;5.27;;
16826;SDS011;8530;49.540;8.576;2023-12-29T09:05:01;7.70;;;6.40;;
16826;SDS011;8530;49.540;8.576;2023-12-29T09:07:28;6.07;;;5.47;;
16826;SDS011;8530;49.540;8.576;2023-12-29T09:09:55;7.17;;;6.43;;
16826;SDS011;8530;49.540;8.576;2023-12-29T09:12:22;6.93;;;5.43;;
16826;SDS011;8530;49.540;8.576;2023-12-29T09:14:50;8.27;;;5.93;;
16826;SDS011;8530;49.540;8.576;2023-12-29T09:17:17;6.17;;;5.57;;
16826;SDS011;8530;49.540;8.576;2023-12-29T09:19:44;7.00;;;6.40;;
16826;SDS011;8530;49.540;8.576;2023-12-29T09:22:11;6.73;;;5.57;;
16826;SDS011;8530;49.540;8.576;2023-12-29T09:24:38;6.37;;;5.47;;
16826;SDS011;8530;49.540;8.576;2023-12-29T09:27:05;5.60;;;5.10;;
16826;SDS011;8530;49.540;8.576;2023-12-29T09:29:32;6.27;;;4.60;;
16826;SDS011;8530;49.540;8.576;2023-12-29T09:32:00;6.10;;;5.50;;
16826;SDS011;8530;49.540;8.576;2023-12-29T09:34:26;6.60;;;5.20;;
16826;SDS011;8530;49.540;8.576;2023-12-29T09:36:53;6.23;;;5.63;;
16826;SDS011;8530;49.540;8.576;2023-12-29T09:39:20;7.77;;;5.60;;
16826;SDS011;8530;49.540;8.576;2023-12-29T09:41:46;5.23;;;4.70;;
16826;SDS011;8530;49.540;8.576;2023-12-29T09:44:16;6.20;;;5.60;;
16826;SDS011;8530;49.540;8.576;2023-12-29T09:46:47;5.77;;;5.17;;
16826;SDS011;8530;49.540;8.576;2023-12-29T09:49:18;5.50;;;4.90;;
16826;SDS011;8530;49.540;8.576;2023-12-29T09:51:45;6.30;;;5.10;;
16826;SDS011;8530;49.540;8.576;2023-12-29T09:54:14;6.20;;;4.90;;
16826;SDS011;8530;49.540;8.576;2023-12-29T09:56:41;6.40;;;5.70;;
16826;SDS011;8530;49.540;8.576;2023-12-29T09:59:09;6.87;;;4.70;;
16826;SDS011;8530;49.540;8.576;2023-12-29T10:01:37;5.27;;;4.33;;
16826;SDS011;8530;49.540;8.576;2023-12-29T10:04:07;5.93;;;4.23;;
16826;SDS011;8530;49.540;8.576;2023-12-29T10:06:36;4.60;;;4.20;;
16826;SDS011;8530;49.540;8.576;2023-12-29T10:09:04;5.40;;;4.33;;
16826;SDS011;8530;49.540;8.576;2023-12-29T10:11:36;5.83;;;3.60;;
16826;SDS011;8530;49.540;8.576;2023-12-29T10:14:07;4.80;;;3.83;;
16826;SDS011;8530;49.540;8.576;2023-12-29T10:16:42;4.80;;;3.67;;
16826;SDS011;8530;49.540;8.576;2023-12-29T10:19:16;3.67;;;3.33;;
16826;SDS011;8530;49.540;8.576;2023-12-29T10:21:55;6.10;;;3.80;;
16826;SDS011;8530;49.540;8.576;2023-12-29T10:24:29;5.83;;;4.23;;
16826;SDS011;8530;49.540;8.576;2023-12-29T10:26:59;3.93;;;3.53;;
16826;SDS011;8530;49.540;8.576;2023-12-29T10:29:31;4.43;;;3.13;;
16826;SDS011;8530;49.540;8.576;2023-12-29T10:31:58;8.40;;;4.00;;
16826;SDS011;8530;49.540;8.576;2023-12-29T10:34:25;4.47;;;3.93;;
16826;SDS011;8530;49.540;8.576;2023-12-29T10:36:55;3.43;;;3.13;;
16826;SDS011;8530;49.540;8.576;2023-12-29T10:39:22;4.00;;;3.70;;
16826;SDS011;8530;49.540;8.576;2023-12-29T10:41:49;6.37;;;3.33;;
16826;SDS011;8530;49.540;8.576;2023-12-29T10:44:16;3.07;;;2.60;;
16826;SDS011;8530;49.540;8.576;2023-12-29T10:46:43;5.47;;;2.70;;
16826;SDS011;8530;49.540;8.576;2023-12-29T10:49:10;2.90;;;2.10;;
16826;SDS011;8530;49.540;8.576;2023-12-29T10:51:38;4.80;;;2.40;;
16826;SDS011;8530;49.540;8.576;2023-12-29T10:54:07;8.00;;;2.43;;
16826;SDS011;8530;49.540;8.576;2023-12-29T10:56:34;6.13;;;2.73;;
16826;SDS011;8530;49.540;8.576;2023-12-29T10:59:01;3.70;;;2.07;;
16826;SDS011;8530;49.540;8.576;2023-12-29T11:01:29;3.57;;;1.50;;
16826;SDS011;8530;49.540;8.576;2023-12-29T11:03:57;4.90;;;2.60;;
16826;SDS011;8530;49.540;8.576;2023-12-29T11:06:25;3.67;;;2.03;;
16826;SDS011;8530;49.540;8.576;2023-12-29T11:08:52;2.67;;;1.63;;
16826;SDS011;8530;49.540;8.576;2023-12-29T11:11:20;6.10;;;2.00;;
16826;SDS011;8530;49.540;8.576;2023-12-29T11:13:46;3.13;;;2.70;;
16826;SDS011;8530;49.540;8.576;2023-12-29T11:16:14;2.20;;;2.00;;
16826;SDS011;8530;49.540;8.576;2023-12-29T11:18:42;5.20;;;2.43;;
16826;SDS011;8530;49.540;8.576;2023-12-29T11:21:11;4.13;;;1.60;;
16826;SDS011;8530;49.540;8.576;2023-12-29T11:23:37;5.73;;;2.00;;
16826;SDS011;8530;49.540;8.576;2023-12-29T11:26:04;2.13;;;1.83;;
16826;SDS011;8530;49.540;8.576;2023-12-29T11:28:33;2.33;;;1.83;;
16826;SDS011;8530;49.540;8.576;2023-12-29T11:31:00;6.33;;;2.67;;
16826;SDS011;8530;49.540;8.576;2023-12-29T11:33:28;5.77;;;2.67;;
16826;SDS011;8530;49.540;8.576;2023-12-29T11:36:00;5.30;;;3.67;;
16826;SDS011;8530;49.540;8.576;2023-12-29T11:38:33;3.00;;;2.30;;
16826;SDS011;8530;49.540;8.576;2023-12-29T11:41:17;2.00;;;1.80;;
16826;SDS011;8530;49.540;8.576;2023-12-29T11:43:56;2.13;;;1.90;;
16826;SDS011;8530;49.540;8.576;2023-12-29T11:46:33;1.90;;;1.80;;
16826;SDS011;8530;49.540;8.576;2023-12-29T11:49:01;4.13;;;2.30;;
16826;SDS011;8530;49.540;8.576;2023-12-29T11:51:30;2.93;;;2.60;;
16826;SDS011;8530;49.540;8.576;2023-12-29T11:53:58;2.60;;;2.40;;
16826;SDS011;8530;49.540;8.576;2023-12-29T11:56:29;3.33;;;2.70;;
16826;SDS011;8530;49.540;8.576;2023-12-29T11:59:03;3.63;;;2.93;;
16826;SDS011;8530;49.540;8.576;2023-12-29T12:01:38;4.60;;;2.90;;
16826;SDS011;8530;49.540;8.576;2023-12-29T12:04:20;6.33;;;3.33;;
16826;SDS011;8530;49.540;8.576;2023-12-29T12:07:01;5.80;;;3.83;;
16826;SDS011;8530;49.540;8.576;2023-12-29T12:09:29;6.63;;;3.17;;
16826;SDS011;8530;49.540;8.576;2023-12-29T12:11:55;2.50;;;2.30;;
16826;SDS011;8530;49.540;8.576;2023-12-29T12:17:30;2.53;;;2.20;;
16826;SDS011;8530;49.540;8.576;2023-12-29T12:19:59;2.90;;;1.87;;
16826;SDS011;8530;49.540;8.576;2023-12-29T12:22:30;1.93;;;1.80;;
16826;SDS011;8530;49.540;8.576;2023-12-29T12:24:58;2.33;;;1.70;;
16826;SDS011;8530;49.540;8.576;2023-12-29T12:27:25;2.97;;;1.73;;
16826;SDS011;8530;49.540;8.576;2023-12-29T12:29:54;2.73;;;2.00;;
16826;SDS011;8530;49.540;8.576;2023-12-29T12:32:22;3.60;;;1.70;;
16826;SDS011;8530;49.540;8.576;2023-12-29T12:34:49;1.70;;;1.50;;
16826;SDS011;8530;49.540;8.576;2023-12-29T12:37:19;1.90;;;1.40;;
16826;SDS011;8530;49.540;8.576;2023-12-29T12:39:47;5.80;;;5.20;;
16826;SDS011;8530;49.540;8.576;2023-12-29T12:42:14;7.50;;;2.23;;
16826;SDS011;8530;49.540;8.576;2023-12-29T12:44:42;2.00;;;1.80;;
16826;SDS011;8530;49.540;8.576;2023-12-29T12:47:17;3.33;;;2.10;;
16826;SDS011;8530;49.540;8.576;2023-12-29T12:49:50;3.73;;;2.00;;
16826;SDS011;8530;49.540;8.576;2023-12-29T12:52:17;2.70;;;2.10;;
16826;SDS011;8530;49.540;8.576;2023-12-29T12:54:44;4.10;;;3.30;;
16826;SDS011;8530;49.540;8.576;2023-12-29T12:57:12;2.30;;;2.10;;
16826;SDS011;8530;49.540;8.576;2023-12-29T12:59:39;2.60;;;2.00;;
16826;SDS011;8530;49.540;8.576;2023-12-29T13:02:05;2.30;;;2.10;;
16826;SDS011;8530;49.540;8.576;2023-12-29T13:04:38;1.93;;;1.80;;
16826;SDS011;8530;49.540;8.576;2023-12-29T13:07:05;2.07;;;1.80;;
16826;SDS011;8530;49.540;8.576;2023-12-29T13:09:32;2.93;;;2.43;;
16826;SDS011;8530;49.540;8.576;2023-12-29T13:12:08;2.03;;;1.83;;
16826;SDS011;8530;49.540;8.576;2023-12-29T13:14:36;3.30;;;1.90;;
16826;SDS011;8530;49.540;8.576;2023-12-29T13:17:06;2.30;;;1.77;;
16826;SDS011;8530;49.540;8.576;2023-12-29T13:19:33;2.40;;;2.10;;
16826;SDS011;8530;49.540;8.576;2023-12-29T13:22:02;3.90;;;2.43;;
16826;SDS011;8530;49.540;8.576;2023-12-29T13:24:31;3.50;;;2.70;;
16826;SDS011;8530;49.540;8.576;2023-12-29T13:27:02;5.03;;;3.10;;
16826;SDS011;8530;49.540;8.576;2023-12-29T13:29:30;3.00;;;2.50;;
16826;SDS011;8530;49.540;8.576;2023-12-29T13:31:59;2.90;;;2.10;;
16826;SDS011;8530;49.540;8.576;2023-12-29T13:34:29;3.07;;;2.60;;
16826;SDS011;8530;49.540;8.576;2023-12-29T13:37:03;4.00;;;2.87;;
16826;SDS011;8530;49.540;8.576;2023-12-29T13:39:38;3.00;;;2.30;;
16826;SDS011;8530;49.540;8.576;2023-12-29T13:42:09;3.87;;;2.00;;
16826;SDS011;8530;49.540;8.576;2023-12-29T13:44:39;4.73;;;3.00;;
16826;SDS011;8530;49.540;8.576;2023-12-29T13:47:07;5.50;;;2.73;;
16826;SDS011;8530;49.540;8.576;2023-12-29T13:49:35;4.80;;;2.40;;
16826;SDS011;8530;49.540;8.576;2023-12-29T13:52:05;3.63;;;2.20;;
16826;SDS011;8530;49.540;8.576;2023-12-29T13:54:40;3.80;;;2.40;;
16826;SDS011;8530;49.540;8.576;2023-12-29T13:57:07;3.97;;;3.03;;
16826;SDS011;8530;49.540;8.576;2023-12-29T13:59:34;3.47;;;2.60;;
16826;SDS011;8530;49.540;8.576;2023-12-29T14:02:02;3.30;;;2.30;;
16826;SDS011;8530;49.540;8.576;2023-12-29T14:04:45;4.93;;;2.33;;
16826;SDS011;8530;49.540;8.576;2023-12-29T14:07:13;2.57;;;2.37;;
16826;SDS011;8530;49.540;8.576;2023-12-29T14:09:40;3.20;;;2.40;;
16826;SDS011;8530;49.540;8.576;2023-12-29T14:12:07;5.53;;;2.20;;
16826;SDS011;8530;49.540;8.576;2023-12-29T14:14:33;2.37;;;2.17;;
16826;SDS011;8530;49.540;8.576;2023-12-29T14:17:00;8.60;;;2.83;;
16826;SDS011;8530;49.540;8.576;2023-12-29T14:19:33;3.53;;;2.33;;
16826;SDS011;8530;49.540;8.576;2023-12-29T14:22:01;2.77;;;2.40;;
16826;SDS011;8530;49.540;8.576;2023-12-29T14:24:29;3.50;;;2.60;;
16826;SDS011;8530;49.540;8.576;2023-12-29T14:26:56;5.60;;;3.33;;
16826;SDS011;8530;49.540;8.576;2023-12-29T14:29:23;3.50;;;3.00;;
16826;SDS011;8530;49.540;8.576;2023-12-29T14:31:51;3.00;;;2.70;;
16826;SDS011;8530;49.540;8.576;2023-12-29T14:34:19;2.60;;;2.20;;
16826;SDS011;8530;49.540;8.576;2023-12-29T14:36:46;2.30;;;2.10;;
16826;SDS011;8530;49.540;8.576;2023-12-29T14:39:13;3.30;;;2.20;;
16826;SDS011;8530;49.540;8.576;2023-12-29T14:41:41;2.70;;;2.50;;
16826;SDS011;8530;49.540;8.576;2023-12-29T14:44:08;3.83;;;2.00;;
16826;SDS011;8530;49.540;8.576;2023-12-29T14:46:36;2.63;;;2.30;;
16826;SDS011;8530;49.540;8.576;2023-12-29T14:49:03;4.00;;;3.03;;
16826;SDS011;8530;49.540;8.576;2023-12-29T14:51:30;2.47;;;1.87;;
16826;SDS011;8530;49.540;8.576;2023-12-29T14:53:57;2.83;;;2.53;;
16826;SDS011;8530;49.540;8.576;2023-12-29T14:56:23;4.83;;;2.20;;
16826;SDS011;8530;49.540;8.576;2023-12-29T14:58:51;2.50;;;2.27;;
16826;SDS011;8530;49.540;8.576;2023-12-29T15:01:18;2.43;;;2.23;;
16826;SDS011;8530;49.540;8.576;2023-12-29T15:03:45;3.20;;;1.80;;
16826;SDS011;8530;49.540;8.576;2023-12-29T15:06:12;2.10;;;1.90;;